Time;durP1;ratioP1;P1;durP2;ratioP2;P2;SDS_P1;SDS_P2;PMS_P1;PMS_P2;Temp;Humidity;BMP_temperature;BMP_pressure;BME280_temperature;BME280_humidity;BME280_pressure;Samples;Min_cycle;Max_cycle;Signal;HPM_P1;HPM_P2
2023/03/24 00:00:23;;;;;;;9.95;4.68;;;;;;;;;;6287950;22;20193;-91
2023/03/24 00:03:33;;;;;;;13.05;4.65;;;;;;;;;;6289860;22;20162;-90
2023/03/24 00:06:39;;;;;;;9.07;4.40;;;;;;;;;;6289711;22;20209;-91
2023/03/24 00:09:45;;;;;;;8.82;4.70;;;;;;;;;;6272077;22;20236;-91
2023/03/24 00:12:51;;;;;;;8.35;3.67;;;;;;;;;;6271480;22;20170;-89
2023/03/24 00:16:18;;;;;;;11.55;3.83;;;;;;;;;;6287511;22;20244;-90
2023/03/24 00:19:23;;;;;;;9.52;3.80;;;;;;;;;;6289093;22;20220;-89
2023/03/24 00:22:48;;;;;;;8.82;3.88;;;;;;;;;;6289236;22;20169;-91
2023/03/24 00:26:01;;;;;;;10.57;4.22;;;;;;;;;;6288862;22;20202;-91
2023/03/24 00:29:07;;;;;;;10.52;4.55;;;;;;;;;;6290069;22;20161;-90
2023/03/24 00:32:12;;;;;;;9.80;4.30;;;;;;;;;;6290592;22;20166;-89
2023/03/24 00:35:19;;;;;;;10.77;4.65;;;;;;;;;;6289749;22;20209;-92
2023/03/24 00:38:26;;;;;;;7.28;5.00;;;;;;;;;;6272768;22;20511;-90
2023/03/24 00:41:32;;;;;;;13.63;4.68;;;;;;;;;;6289281;22;20237;-89
2023/03/24 00:44:37;;;;;;;12.43;5.13;;;;;;;;;;6290245;22;20153;-88
2023/03/24 00:47:48;;;;;;;13.68;5.10;;;;;;;;;;6290949;22;20197;-88
2023/03/24 00:50:53;;;;;;;9.25;4.80;;;;;;;;;;6290649;22;20252;-90
2023/03/24 00:54:00;;;;;;;10.13;4.10;;;;;;;;;;6289367;22;20166;-90
2023/03/24 00:57:06;;;;;;;11.60;4.60;;;;;;;;;;6288950;22;20189;-91
2023/03/24 01:00:13;;;;;;;7.60;4.10;;;;;;;;;;6289135;22;20222;-91
2023/03/24 01:03:49;;;;;;;10.45;4.10;;;;;;;;;;6291286;22;20146;-88
2023/03/24 01:06:57;;;;;;;7.45;3.72;;;;;;;;;;6272773;22;20170;-91
2023/03/24 01:10:04;;;;;;;11.70;4.55;;;;;;;;;;6289599;22;20228;-89
2023/03/24 01:13:10;;;;;;;9.82;4.20;;;;;;;;;;6288400;22;20205;-89
2023/03/24 01:16:15;;;;;;;11.68;4.75;;;;;;;;;;6272240;22;20146;-90
2023/03/24 01:19:20;;;;;;;14.25;4.10;;;;;;;;;;6288786;22;20240;-90
2023/03/24 01:26:57;;;;;;;16.17;4.50;;;;;;;;;;6290524;22;20173;-92
2023/03/24 01:30:02;;;;;;;11.50;4.40;;;;;;;;;;6271714;22;20608;-90
2023/03/24 01:33:08;;;;;;;7.78;4.57;;;;;;;;;;6271599;22;20683;-89
2023/03/24 01:36:13;;;;;;;9.02;4.38;;;;;;;;;;6289035;22;20174;-92
2023/03/24 01:39:19;;;;;;;10.27;4.75;;;;;;;;;;6289844;22;20214;-88
2023/03/24 01:42:26;;;;;;;10.57;4.78;;;;;;;;;;6290103;22;20174;-91
2023/03/24 01:45:42;;;;;;;10.35;4.63;;;;;;;;;;6290510;22;20617;-93
2023/03/24 01:48:50;;;;;;;12.30;5.32;;;;;;;;;;6288104;22;20162;-91
2023/03/24 01:51:57;;;;;;;7.93;4.20;;;;;;;;;;6269872;22;20499;-90
2023/03/24 01:55:06;;;;;;;14.45;5.22;;;;;;;;;;6288960;22;20162;-91
2023/03/24 01:58:13;;;;;;;9.10;4.43;;;;;;;;;;6270428;22;20162;-91
2023/03/24 02:01:44;;;;;;;11.23;4.60;;;;;;;;;;6287769;22;20178;-91
2023/03/24 02:05:12;;;;;;;8.90;4.22;;;;;;;;;;6288453;22;20154;-91
2023/03/24 02:08:24;;;;;;;10.23;4.93;;;;;;;;;;6288714;22;20170;-91
2023/03/24 02:11:31;;;;;;;7.68;4.63;;;;;;;;;;6288221;22;20174;-92
2023/03/24 02:14:41;;;;;;;8.82;4.30;;;;;;;;;;6289344;22;20162;-91
2023/03/24 02:18:01;;;;;;;9.25;4.63;;;;;;;;;;6288218;22;20162;-89
2023/03/24 02:21:37;;;;;;;11.48;5.07;;;;;;;;;;6289016;22;20178;-92
2023/03/24 02:25:09;;;;;;;10.00;4.57;;;;;;;;;;6181121;22;20171;-90
2023/03/24 02:28:21;;;;;;;8.57;4.20;;;;;;;;;;6289264;22;20180;-91
2023/03/24 02:31:44;;;;;;;9.23;4.43;;;;;;;;;;6290141;22;20154;-89
2023/03/24 02:35:18;;;;;;;7.78;4.32;;;;;;;;;;6289619;22;20177;-91
2023/03/24 02:38:52;;;;;;;10.63;5.03;;;;;;;;;;6290005;22;20184;-91
2023/03/24 02:42:05;;;;;;;12.43;5.20;;;;;;;;;;6291353;22;20208;-91
2023/03/24 02:45:15;;;;;;;11.45;4.65;;;;;;;;;;6289278;22;20166;-91
2023/03/24 02:48:22;;;;;;;10.02;4.55;;;;;;;;;;6289012;22;20216;-91
2023/03/24 02:51:33;;;;;;;8.82;4.30;;;;;;;;;;6288143;22;20154;-91
2023/03/24 02:54:42;;;;;;;10.35;5.05;;;;;;;;;;6287680;22;20169;-95
2023/03/24 02:57:52;;;;;;;10.68;4.82;;;;;;;;;;6288385;22;20198;-90
2023/03/24 03:01:27;;;;;;;9.95;4.50;;;;;;;;;;6287455;22;20247;-90
2023/03/24 03:04:55;;;;;;;10.80;4.50;;;;;;;;;;6286791;22;20170;-92
2023/03/24 03:08:02;;;;;;;10.05;4.47;;;;;;;;;;6268875;22;20149;-88
2023/03/24 03:11:08;;;;;;;10.43;4.47;;;;;;;;;;6286902;22;20806;-90
2023/03/24 03:14:41;;;;;;;7.57;4.55;;;;;;;;;;6286948;22;20162;-90
2023/03/24 03:17:51;;;;;;;10.82;4.85;;;;;;;;;;6286481;22;20176;-89
2023/03/24 03:21:03;;;;;;;9.05;4.43;;;;;;;;;;6268293;22;20170;-91
2023/03/24 03:24:11;;;;;;;8.02;4.10;;;;;;;;;;6287630;22;20169;-90
2023/03/24 03:27:18;;;;;;;9.65;5.07;;;;;;;;;;6268625;22;20243;-90
2023/03/24 03:30:24;;;;;;;8.27;3.92;;;;;;;;;;6286103;22;20166;-89
2023/03/24 03:33:33;;;;;;;9.93;4.55;;;;;;;;;;6285186;22;20173;-91
2023/03/24 03:36:42;;;;;;;10.50;4.13;;;;;;;;;;6286038;22;20165;-93
2023/03/24 03:39:50;;;;;;;14.48;4.20;;;;;;;;;;6287486;22;20550;-91
2023/03/24 03:42:56;;;;;;;8.73;4.00;;;;;;;;;;6286412;22;20174;-90
2023/03/24 03:46:01;;;;;;;8.52;3.83;;;;;;;;;;6285750;22;20164;-91
2023/03/24 03:49:15;;;;;;;9.30;4.30;;;;;;;;;;6268369;22;20190;-90
2023/03/24 03:52:21;;;;;;;13.88;4.82;;;;;;;;;;6286362;22;20161;-90
2023/03/24 03:55:29;;;;;;;8.05;4.35;;;;;;;;;;6288318;22;20659;-88
2023/03/24 03:58:35;;;;;;;6.85;4.15;;;;;;;;;;6287749;22;20166;-92
2023/03/24 04:01:42;;;;;;;9.90;4.43;;;;;;;;;;6285889;22;20201;-93
2023/03/24 04:05:28;;;;;;;8.52;3.42;;;;;;;;;;6285565;22;20149;-89
2023/03/24 04:09:06;;;;;;;11.05;3.83;;;;;;;;;;6287352;22;20170;-93
2023/03/24 04:12:24;;;;;;;16.77;5.53;;;;;;;;;;6286874;22;20162;-91
2023/03/24 04:15:51;;;;;;;19.20;6.82;;;;;;;;;;6286791;22;20165;-89
2023/03/24 04:19:25;;;;;;;18.75;7.45;;;;;;;;;;6287517;22;20166;-90
2023/03/24 04:22:38;;;;;;;20.45;7.38;;;;;;;;;;6286250;22;20242;-90
2023/03/24 04:26:02;;;;;;;16.13;6.10;;;;;;;;;;6287994;22;20154;-90
2023/03/24 04:29:13;;;;;;;14.20;5.72;;;;;;;;;;6270277;22;20162;-89
2023/03/24 04:32:21;;;;;;;10.55;5.00;;;;;;;;;;6286713;22;20166;-91
2023/03/24 04:35:31;;;;;;;8.93;4.80;;;;;;;;;;6289142;22;20226;-91
2023/03/24 04:38:53;;;;;;;12.55;4.93;;;;;;;;;;6289314;22;20170;-89
2023/03/24 04:42:16;;;;;;;11.88;4.93;;;;;;;;;;6290511;22;20527;-90
2023/03/24 04:45:24;;;;;;;10.10;4.38;;;;;;;;;;6290212;22;20248;-92
2023/03/24 04:48:48;;;;;;;8.32;4.25;;;;;;;;;;6288663;22;20494;-89
2023/03/24 04:52:02;;;;;;;7.85;4.60;;;;;;;;;;6288426;22;20168;-89
2023/03/24 04:55:26;;;;;;;11.10;5.07;;;;;;;;;;6287712;22;20170;-92
2023/03/24 04:58:33;;;;;;;10.20;5.63;;;;;;;;;;6288531;22;20676;-91
2023/03/24 05:06:24;;;;;;;9.68;4.60;;;;;;;;;;6289965;22;20201;-90
2023/03/24 05:09:30;;;;;;;9.20;4.40;;;;;;;;;;6288976;22;20166;-90
2023/03/24 05:12:36;;;;;;;8.10;4.50;;;;;;;;;;6289752;22;20222;-90
2023/03/24 05:16:01;;;;;;;7.90;4.35;;;;;;;;;;6288934;22;20186;-93
2023/03/24 05:19:12;;;;;;;9.23;4.50;;;;;;;;;;6289077;22;20174;-91
2023/03/24 05:22:21;;;;;;;7.60;4.32;;;;;;;;;;6288516;22;20245;-89
2023/03/24 05:25:26;;;;;;;12.63;5.40;;;;;;;;;;6288762;22;20166;-90
2023/03/24 05:28:31;;;;;;;8.50;3.80;;;;;;;;;;6289703;22;20165;-92
2023/03/24 05:31:38;;;;;;;9.93;4.53;;;;;;;;;;6288984;22;20170;-89
2023/03/24 05:34:47;;;;;;;14.32;4.97;;;;;;;;;;6290733;22;20181;-90
2023/03/24 05:37:52;;;;;;;13.60;5.15;;;;;;;;;;6289040;22;20166;-89
2023/03/24 05:40:58;;;;;;;10.35;5.93;;;;;;;;;;6288605;22;20230;-89
2023/03/24 05:44:05;;;;;;;9.93;5.53;;;;;;;;;;6290314;22;20174;-90
2023/03/24 05:47:15;;;;;;;14.68;6.57;;;;;;;;;;6288204;22;20240;-90
2023/03/24 05:50:22;;;;;;;15.88;6.25;;;;;;;;;;6289558;22;20257;-90
2023/03/24 05:53:27;;;;;;;14.23;6.57;;;;;;;;;;6290460;22;20170;-89
2023/03/24 05:56:51;;;;;;;11.65;6.55;;;;;;;;;;6290715;22;20158;-91
2023/03/24 06:00:22;;;;;;;10.45;5.70;;;;;;;;;;6288591;22;20165;-88
2023/03/24 06:03:39;;;;;;;15.23;5.82;;;;;;;;;;6288627;22;20337;-88
2023/03/24 06:06:48;;;;;;;10.20;5.18;;;;;;;;;;6268859;22;20162;-89
2023/03/24 06:10:01;;;;;;;10.15;5.28;;;;;;;;;;6288511;22;20165;-88
2023/03/24 06:13:11;;;;;;;13.15;5.10;;;;;;;;;;6289778;22;20244;-92
2023/03/24 06:16:22;;;;;;;13.57;5.13;;;;;;;;;;6270942;22;20166;-89
2023/03/24 06:19:37;;;;;;;12.52;5.70;;;;;;;;;;6289387;22;20165;-89
2023/03/24 06:23:01;;;;;;;10.85;4.57;;;;;;;;;;6288402;22;20177;-91
2023/03/24 06:26:15;;;;;;;9.77;4.75;;;;;;;;;;6288688;22;20178;-89
2023/03/24 06:29:29;;;;;;;15.38;5.63;;;;;;;;;;6288811;22;20288;-90
2023/03/24 06:32:34;;;;;;;9.38;4.97;;;;;;;;;;6288541;22;20174;-89
2023/03/24 06:35:41;;;;;;;11.05;5.32;;;;;;;;;;6290103;22;20253;-89
2023/03/24 06:38:50;;;;;;;17.55;5.20;;;;;;;;;;6289475;22;20212;-90
2023/03/24 06:41:57;;;;;;;11.13;5.00;;;;;;;;;;6288129;22;20193;-90
2023/03/24 06:45:03;;;;;;;10.25;5.20;;;;;;;;;;6287131;22;20289;-90
2023/03/24 06:48:08;;;;;;;14.40;5.40;;;;;;;;;;6290724;22;20242;-90
2023/03/24 06:51:15;;;;;;;11.13;5.40;;;;;;;;;;6284976;22;20190;-92
2023/03/24 06:54:21;;;;;;;11.55;4.88;;;;;;;;;;6287547;22;20272;-91
2023/03/24 06:57:30;;;;;;;11.15;5.00;;;;;;;;;;6286915;22;20161;-90
2023/03/24 07:01:21;;;;;;;8.95;4.85;;;;;;;;;;6286875;22;20169;-90
2023/03/24 07:04:40;;;;;;;8.05;4.40;;;;;;;;;;6290020;22;20597;-93
2023/03/24 07:08:03;;;;;;;9.43;4.60;;;;;;;;;;6289986;22;20166;-91
2023/03/24 07:11:16;;;;;;;12.00;4.35;;;;;;;;;;6288620;22;20219;-91
2023/03/24 07:14:31;;;;;;;9.00;4.45;;;;;;;;;;6286251;22;20688;-91
2023/03/24 07:17:37;;;;;;;8.68;4.38;;;;;;;;;;6268727;22;20157;-91
2023/03/24 07:21:17;;;;;;;10.50;4.63;;;;;;;;;;6287784;22;20171;-90
2023/03/24 07:24:24;;;;;;;12.85;4.15;;;;;;;;;;6288555;22;20173;-91
2023/03/24 07:27:38;;;;;;;12.48;4.88;;;;;;;;;;6287065;22;20170;-94
2023/03/24 07:30:43;;;;;;;8.80;4.55;;;;;;;;;;6288350;22;20182;-90
2023/03/24 07:33:50;;;;;;;11.80;4.88;;;;;;;;;;6288899;22;20201;-91
2023/03/24 07:36:56;;;;;;;9.60;4.35;;;;;;;;;;6291098;22;20166;-90
2023/03/24 07:40:04;;;;;;;9.48;4.80;;;;;;;;;;6290442;22;20181;-91
2023/03/24 07:43:09;;;;;;;21.27;9.23;;;;;;;;;;6268207;22;20260;-90
2023/03/24 07:46:33;;;;;;;11.15;4.43;;;;;;;;;;6290858;22;20676;-89
2023/03/24 07:49:38;;;;;;;12.90;4.63;;;;;;;;;;6270354;22;20169;-90
2023/03/24 07:52:48;;;;;;;8.75;4.68;;;;;;;;;;6287497;22;20162;-91
2023/03/24 07:55:57;;;;;;;12.10;5.53;;;;;;;;;;6271679;22;20196;-89
2023/03/24 07:59:03;;;;;;;10.27;4.72;;;;;;;;;;6289096;22;20170;-89
2023/03/24 08:06:51;;;;;;;10.10;4.80;;;;;;;;;;6291317;22;20158;-89
2023/03/24 08:09:57;;;;;;;17.63;6.80;;;;;;;;;;6293183;22;20169;-91
2023/03/24 08:13:03;;;;;;;10.80;5.32;;;;;;;;;;6293806;22;20174;-93
2023/03/24 08:16:12;;;;;;;10.70;5.63;;;;;;;;;;6291441;22;20661;-92
2023/03/24 08:19:17;;;;;;;14.48;5.68;;;;;;;;;;6290868;22;20173;-89
2023/03/24 08:22:52;;;;;;;15.13;5.13;;;;;;;;;;6289356;22;20189;-90
2023/03/24 08:25:59;;;;;;;13.98;6.15;;;;;;;;;;6292013;22;20205;-93
2023/03/24 08:29:05;;;;;;;12.27;5.13;;;;;;;;;;6291403;22;20240;-90
2023/03/24 08:32:11;;;;;;;12.68;6.05;;;;;;;;;;6300495;22;20174;-90
2023/03/24 08:35:18;;;;;;;16.77;6.72;;;;;;;;;;6296932;22;20161;-90
2023/03/24 08:38:29;;;;;;;13.68;5.40;;;;;;;;;;6274328;22;20162;-91
2023/03/24 08:41:35;;;;;;;15.07;6.82;;;;;;;;;;6291474;22;20185;-93
2023/03/24 08:44:43;;;;;;;11.70;6.40;;;;;;;;;;6291555;22;20192;-92
2023/03/24 08:47:49;;;;;;;14.52;5.82;;;;;;;;;;6291628;22;20177;-91
2023/03/24 08:50:56;;;;;;;13.70;6.10;;;;;;;;;;6291390;22;20190;-92
2023/03/24 08:54:02;;;;;;;11.13;5.88;;;;;;;;;;6291956;22;20164;-89
2023/03/24 08:57:07;;;;;;;11.60;5.78;;;;;;;;;;6290737;22;20285;-91
2023/03/24 09:00:15;;;;;;;12.90;5.57;;;;;;;;;;6289228;22;20600;-92
2023/03/24 09:03:20;;;;;;;12.00;5.55;;;;;;;;;;6270023;22;20216;-93
2023/03/24 09:06:26;;;;;;;12.52;5.60;;;;;;;;;;6289028;22;20170;-91
2023/03/24 09:09:31;;;;;;;10.60;5.15;;;;;;;;;;6272293;22;20162;-92
2023/03/24 09:12:37;;;;;;;10.07;4.65;;;;;;;;;;6273801;22;20178;-90
2023/03/24 09:15:47;;;;;;;10.55;4.68;;;;;;;;;;6292235;22;20193;-90
2023/03/24 09:18:53;;;;;;;10.50;4.93;;;;;;;;;;6291408;22;20270;-90
2023/03/24 09:22:24;;;;;;;10.95;5.18;;;;;;;;;;6289709;22;20177;-91
2023/03/24 09:25:29;;;;;;;10.68;4.72;;;;;;;;;;6291394;22;20170;-92
2023/03/24 09:28:34;;;;;;;7.90;4.82;;;;;;;;;;6290949;22;20209;-93
2023/03/24 09:31:40;;;;;;;9.07;5.10;;;;;;;;;;6289573;22;20232;-91
2023/03/24 09:34:46;;;;;;;7.97;5.50;;;;;;;;;;6290293;22;20153;-91
2023/03/24 09:37:52;;;;;;;10.23;5.38;;;;;;;;;;6290058;22;20165;-91
2023/03/24 09:41:00;;;;;;;9.95;5.57;;;;;;;;;;6292659;22;20162;-94
2023/03/24 09:44:07;;;;;;;12.10;5.78;;;;;;;;;;6289955;22;20201;-90
2023/03/24 09:47:20;;;;;;;11.98;5.68;;;;;;;;;;6289899;22;20169;-92
2023/03/24 09:50:30;;;;;;;10.32;5.45;;;;;;;;;;6288550;22;20165;-92
2023/03/24 09:53:40;;;;;;;14.85;6.32;;;;;;;;;;6288414;22;20213;-92
2023/03/24 09:56:48;;;;;;;9.93;5.97;;;;;;;;;;6288982;22;20173;-90
2023/03/24 09:59:53;;;;;;;9.25;5.68;;;;;;;;;;6287767;22;20162;-91
2023/03/24 10:03:01;;;;;;;10.80;5.82;;;;;;;;;;6286741;22;20652;-91
2023/03/24 10:06:08;;;;;;;10.23;6.00;;;;;;;;;;6290877;22;20277;-90
2023/03/24 10:09:23;;;;;;;14.02;6.15;;;;;;;;;;6271327;22;20173;-90
2023/03/24 10:12:33;;;;;;;12.38;6.47;;;;;;;;;;6289995;22;20145;-90
2023/03/24 10:15:40;;;;;;;13.82;6.60;;;;;;;;;;6288346;22;20554;-90
2023/03/24 10:18:52;;;;;;;15.30;6.88;;;;;;;;;;6271457;22;20205;-92
2023/03/24 10:22:02;;;;;;;19.95;7.85;;;;;;;;;;6271848;22;20166;-91
2023/03/24 10:25:14;;;;;;;11.63;6.53;;;;;;;;;;6289660;22;20188;-91
2023/03/24 10:28:21;;;;;;;14.95;6.53;;;;;;;;;;6291759;22;20169;-89
2023/03/24 10:31:28;;;;;;;12.95;6.22;;;;;;;;;;6296326;22;20209;-91
2023/03/24 10:34:36;;;;;;;16.60;7.63;;;;;;;;;;6289478;22;20198;-91
2023/03/24 10:37:41;;;;;;;12.02;6.70;;;;;;;;;;6274725;22;20174;-91
2023/03/24 10:40:47;;;;;;;12.18;6.00;;;;;;;;;;6271815;22;20166;-90
2023/03/24 10:43:53;;;;;;;14.25;6.80;;;;;;;;;;6272073;22;20240;-90
2023/03/24 10:46:59;;;;;;;12.68;6.93;;;;;;;;;;6291135;22;20165;-90
2023/03/24 10:50:08;;;;;;;13.07;7.10;;;;;;;;;;6291902;22;20173;-91
2023/03/24 10:53:18;;;;;;;15.15;6.30;;;;;;;;;;6272972;22;20173;-90
2023/03/24 10:56:38;;;;;;;11.43;6.28;;;;;;;;;;6290225;22;20169;-91
2023/03/24 10:59:52;;;;;;;10.48;5.97;;;;;;;;;;6291210;22;20651;-89
2023/03/24 11:03:00;;;;;;;9.30;6.00;;;;;;;;;;6289847;22;20193;-89
2023/03/24 11:06:08;;;;;;;13.02;6.65;;;;;;;;;;6288994;22;20170;-90
2023/03/24 11:09:20;;;;;;;14.68;5.82;;;;;;;;;;6290992;22;20212;-91
2023/03/24 11:12:26;;;;;;;12.80;6.55;;;;;;;;;;6291822;22;20193;-89
2023/03/24 11:15:46;;;;;;;11.85;6.05;;;;;;;;;;6288850;22;20174;-90
2023/03/24 11:18:56;;;;;;;11.23;5.80;;;;;;;;;;6288263;22;20217;-90
2023/03/24 11:22:07;;;;;;;11.65;5.90;;;;;;;;;;6289677;22;20197;-92
2023/03/24 11:25:21;;;;;;;15.20;6.30;;;;;;;;;;6289291;22;20195;-91
2023/03/24 11:28:28;;;;;;;12.55;5.85;;;;;;;;;;6289042;22;20231;-91
2023/03/24 11:31:37;;;;;;;9.60;5.70;;;;;;;;;;6288139;22;20170;-90
2023/03/24 11:34:48;;;;;;;10.90;5.80;;;;;;;;;;6270458;22;20186;-90
2023/03/24 11:37:55;;;;;;;10.63;6.10;;;;;;;;;;6290339;22;20169;-93
2023/03/24 11:41:04;;;;;;;10.82;6.20;;;;;;;;;;6291524;22;20169;-88
2023/03/24 11:44:19;;;;;;;10.15;5.93;;;;;;;;;;6268483;22;20189;-90
2023/03/24 11:47:25;;;;;;;13.88;6.43;;;;;;;;;;6287781;22;20169;-91
2023/03/24 11:50:32;;;;;;;15.07;6.05;;;;;;;;;;6288746;22;20176;-92
2023/03/24 11:53:41;;;;;;;9.07;5.53;;;;;;;;;;6286879;22;20165;-90
2023/03/24 11:56:47;;;;;;;8.75;5.55;;;;;;;;;;6287058;22;20609;-91
2023/03/24 11:59:56;;;;;;;15.15;6.30;;;;;;;;;;6268442;22;20217;-91
2023/03/24 12:03:12;;;;;;;14.52;5.90;;;;;;;;;;6271286;22;20217;-90
2023/03/24 12:06:25;;;;;;;12.60;6.35;;;;;;;;;;6289232;22;20174;-93
2023/03/24 12:09:35;;;;;;;16.50;6.95;;;;;;;;;;6290760;22;20185;-92
2023/03/24 12:12:47;;;;;;;11.30;5.60;;;;;;;;;;6290966;22;20609;-91
2023/03/24 12:15:59;;;;;;;13.00;6.00;;;;;;;;;;6289719;22;20161;-93
2023/03/24 12:19:24;;;;;;;11.57;5.47;;;;;;;;;;6288913;22;20165;-89
2023/03/24 12:22:39;;;;;;;10.15;5.88;;;;;;;;;;6291462;22;20205;-91
2023/03/24 12:25:57;;;;;;;14.98;7.28;;;;;;;;;;6270214;22;20205;-90
2023/03/24 12:29:13;;;;;;;11.65;6.30;;;;;;;;;;6286820;22;20181;-90
2023/03/24 12:32:30;;;;;;;14.80;6.65;;;;;;;;;;6289454;22;20174;-93
2023/03/24 12:35:41;;;;;;;11.27;6.00;;;;;;;;;;6290481;22;20165;-91
2023/03/24 12:38:53;;;;;;;9.05;5.15;;;;;;;;;;6291426;22;20167;-90
2023/03/24 12:42:07;;;;;;;10.45;4.88;;;;;;;;;;6290924;22;20169;-93
2023/03/24 12:45:21;;;;;;;10.20;5.28;;;;;;;;;;6290343;22;20193;-93
2023/03/24 12:48:38;;;;;;;13.73;6.05;;;;;;;;;;6291193;22;20177;-92
2023/03/24 12:51:47;;;;;;;11.70;5.25;;;;;;;;;;6291323;22;20174;-92
2023/03/24 12:54:54;;;;;;;10.32;5.25;;;;;;;;;;6296276;22;20209;-90
2023/03/24 12:58:03;;;;;;;9.05;5.20;;;;;;;;;;6295816;22;20166;-92
2023/03/24 13:01:38;;;;;;;12.18;5.45;;;;;;;;;;6292661;22;20178;-90
2023/03/24 13:04:47;;;;;;;9.88;4.75;;;;;;;;;;6293137;22;20201;-90
2023/03/24 13:08:01;;;;;;;8.48;4.93;;;;;;;;;;6276590;22;20213;-91
2023/03/24 13:11:11;;;;;;;14.07;8.25;;;;;;;;;;6277286;22;20158;-90
2023/03/24 13:14:21;;;;;;;8.35;5.18;;;;;;;;;;6278786;22;20165;-89
2023/03/24 13:17:31;;;;;;;10.55;5.22;;;;;;;;;;6294155;22;20248;-91
2023/03/24 13:20:41;;;;;;;13.48;6.95;;;;;;;;;;6294226;22;20162;-91
2023/03/24 13:23:51;;;;;;;12.57;6.88;;;;;;;;;;6293107;22;20233;-92
2023/03/24 13:27:03;;;;;;;9.43;4.78;;;;;;;;;;6293629;22;20174;-91
2023/03/24 13:30:31;;;;;;;11.02;4.88;;;;;;;;;;6274627;22;20166;-88
2023/03/24 13:33:38;;;;;;;12.63;7.43;;;;;;;;;;6274038;22;20275;-87
2023/03/24 13:36:45;;;;;;;10.65;5.82;;;;;;;;;;6272304;22;20209;-91
2023/03/24 13:39:54;;;;;;;11.05;4.93;;;;;;;;;;6291730;22;20145;-92
2023/03/24 13:43:01;;;;;;;8.05;4.55;;;;;;;;;;6256413;22;20174;-92
2023/03/24 13:46:13;;;;;;;8.65;4.75;;;;;;;;;;6275280;22;20157;-88
2023/03/24 13:49:19;;;;;;;13.93;4.95;;;;;;;;;;6295105;22;20166;-90
2023/03/24 13:52:28;;;;;;;9.15;4.10;;;;;;;;;;6292242;22;20232;-91
2023/03/24 13:55:36;;;;;;;9.48;5.57;;;;;;;;;;6294765;22;20169;-92
2023/03/24 13:58:49;;;;;;;11.13;5.90;;;;;;;;;;6294648;22;20197;-89
2023/03/24 14:06:02;;;;;;;11.27;4.55;;;;;;;;;;6295274;22;20141;-89
2023/03/24 14:09:15;;;;;;;9.18;4.00;;;;;;;;;;6276779;22;20173;-90
2023/03/24 14:12:21;;;;;;;6.78;4.22;;;;;;;;;;6295399;22;20693;-91
2023/03/24 14:15:29;;;;;;;9.68;4.30;;;;;;;;;;6294671;22;20173;-93
2023/03/24 14:18:42;;;;;;;5.72;3.65;;;;;;;;;;6294242;22;20154;-90
2023/03/24 14:22:10;;;;;;;9.45;5.25;;;;;;;;;;6274465;22;20169;-90
2023/03/24 14:25:25;;;;;;;5.78;3.05;;;;;;;;;;6294706;22;20316;-90
2023/03/24 14:28:33;;;;;;;6.45;2.88;;;;;;;;;;6275635;22;20181;-90
2023/03/24 14:31:38;;;;;;;6.47;3.50;;;;;;;;;;6275789;22;20244;-92
2023/03/24 14:34:50;;;;;;;7.63;3.75;;;;;;;;;;6293637;22;20193;-91
2023/03/24 14:37:57;;;;;;;5.18;3.45;;;;;;;;;;6293073;22;20166;-92
2023/03/24 14:41:09;;;;;;;9.68;3.47;;;;;;;;;;6291387;22;20162;-90
2023/03/24 14:44:14;;;;;;;7.95;4.88;;;;;;;;;;6273591;22;20174;-90
2023/03/24 14:47:20;;;;;;;4.68;3.17;;;;;;;;;;6291865;22;20173;-91
2023/03/24 14:50:26;;;;;;;6.28;2.45;;;;;;;;;;6292178;22;20197;-90
2023/03/24 14:53:31;;;;;;;8.77;3.50;;;;;;;;;;6290963;22;20621;-92
2023/03/24 14:56:41;;;;;;;6.60;2.92;;;;;;;;;;6291485;22;20165;-90
2023/03/24 14:59:52;;;;;;;7.40;3.58;;;;;;;;;;6291541;22;20206;-89
2023/03/24 15:03:01;;;;;;;6.05;3.17;;;;;;;;;;6292056;22;20150;-90
2023/03/24 15:06:14;;;;;;;5.63;2.85;;;;;;;;;;6292908;22;20193;-93
2023/03/24 15:09:20;;;;;;;7.03;3.00;;;;;;;;;;6293043;22;20249;-93
2023/03/24 15:12:29;;;;;;;7.65;3.42;;;;;;;;;;6273914;22;20177;-91
2023/03/24 15:15:35;;;;;;;5.07;3.00;;;;;;;;;;6292240;22;20242;-91
2023/03/24 15:18:46;;;;;;;7.13;3.22;;;;;;;;;;6293499;22;20149;-91
2023/03/24 15:21:57;;;;;;;5.95;3.35;;;;;;;;;;6292224;22;20165;-89
2023/03/24 15:25:03;;;;;;;6.65;3.47;;;;;;;;;;6290977;22;20296;-92
2023/03/24 15:28:14;;;;;;;8.73;3.53;;;;;;;;;;6291827;22;20169;-91
2023/03/24 15:31:19;;;;;;;6.88;3.35;;;;;;;;;;6289316;22;20169;-90
2023/03/24 15:34:26;;;;;;;9.05;3.92;;;;;;;;;;6273555;22;20237;-89
2023/03/24 15:37:32;;;;;;;8.73;4.07;;;;;;;;;;6292995;22;20230;-91
2023/03/24 15:40:39;;;;;;;7.80;4.25;;;;;;;;;;6257355;22;20165;-89
2023/03/24 15:43:48;;;;;;;7.93;4.70;;;;;;;;;;6292151;22;20284;-92
2023/03/24 15:46:57;;;;;;;7.10;4.40;;;;;;;;;;6272798;22;20169;-92
2023/03/24 15:50:03;;;;;;;9.98;5.68;;;;;;;;;;6273425;22;20189;-92
2023/03/24 15:53:24;;;;;;;9.25;4.93;;;;;;;;;;6290974;22;20169;-91
2023/03/24 15:56:32;;;;;;;11.68;4.90;;;;;;;;;;6274930;22;20192;-92
2023/03/24 15:59:43;;;;;;;8.43;4.57;;;;;;;;;;6272025;22;20154;-89
2023/03/24 16:03:08;;;;;;;10.43;5.75;;;;;;;;;;6291291;22;20226;-90
2023/03/24 16:06:16;;;;;;;6.72;4.15;;;;;;;;;;6273720;22;20213;-89
2023/03/24 16:09:26;;;;;;;9.75;4.53;;;;;;;;;;6294544;22;20220;-90
2023/03/24 16:12:31;;;;;;;8.30;4.65;;;;;;;;;;6293958;22;20588;-91
2023/03/24 16:15:38;;;;;;;7.45;5.07;;;;;;;;;;6295172;22;20146;-91
2023/03/24 16:18:45;;;;;;;10.15;4.82;;;;;;;;;;6275664;22;20185;-91
2023/03/24 16:25:43;;;;;;;8.57;5.13;;;;;;;;;;6272752;22;20185;-91
2023/03/24 16:28:52;;;;;;;9.75;5.10;;;;;;;;;;6275240;22;20216;-94
2023/03/24 16:31:59;;;;;;;10.15;5.55;;;;;;;;;;6295317;22;20200;-90
2023/03/24 16:35:06;;;;;;;11.40;5.68;;;;;;;;;;6277846;22;20170;-90
2023/03/24 16:38:13;;;;;;;19.85;7.28;;;;;;;;;;6293532;22;20170;-91
2023/03/24 16:41:18;;;;;;;25.95;8.82;;;;;;;;;;6292967;22;20150;-91
2023/03/24 16:44:24;;;;;;;16.83;7.88;;;;;;;;;;6293056;22;20177;-91
2023/03/24 16:47:31;;;;;;;11.55;5.95;;;;;;;;;;6293249;22;20189;-90
2023/03/24 16:50:38;;;;;;;15.70;8.43;;;;;;;;;;6292696;22;20205;-92
2023/03/24 16:53:44;;;;;;;11.98;6.07;;;;;;;;;;6289258;22;20174;-91
2023/03/24 16:56:50;;;;;;;15.93;7.65;;;;;;;;;;6272960;22;20165;-92
2023/03/24 16:59:55;;;;;;;11.38;6.00;;;;;;;;;;6274320;22;20170;-89
2023/03/24 17:03:03;;;;;;;10.73;5.47;;;;;;;;;;6292210;22;20166;-90
2023/03/24 17:06:08;;;;;;;8.57;5.40;;;;;;;;;;6293888;22;20194;-90
2023/03/24 17:09:14;;;;;;;8.57;5.25;;;;;;;;;;6293635;22;20149;-91
2023/03/24 17:12:19;;;;;;;10.85;4.70;;;;;;;;;;6294049;22;20168;-90
2023/03/24 17:15:26;;;;;;;7.90;4.35;;;;;;;;;;6297256;22;20208;-90
2023/03/24 17:18:38;;;;;;;9.77;5.03;;;;;;;;;;6296176;22;20288;-93
2023/03/24 17:22:02;;;;;;;9.75;4.93;;;;;;;;;;6292205;22;20166;-90
2023/03/24 17:25:10;;;;;;;8.60;5.32;;;;;;;;;;6293803;22;20174;-91
2023/03/24 17:31:35;;;;;;;12.25;6.20;;;;;;;;;;6276246;22;20250;-93
2023/03/24 17:34:42;;;;;;;13.90;6.60;;;;;;;;;;6292143;22;20208;-88
2023/03/24 17:37:50;;;;;;;16.08;7.90;;;;;;;;;;6293536;22;20210;-90
2023/03/24 17:41:01;;;;;;;14.88;6.97;;;;;;;;;;6273553;22;20218;-93
2023/03/24 17:44:06;;;;;;;11.40;6.32;;;;;;;;;;6290558;22;20204;-91
2023/03/24 17:47:11;;;;;;;12.23;6.63;;;;;;;;;;6290659;22;20169;-91
2023/03/24 17:50:17;;;;;;;14.00;6.45;;;;;;;;;;6289404;22;20724;-89
2023/03/24 17:53:24;;;;;;;16.73;7.65;;;;;;;;;;6290547;22;20150;-90
2023/03/24 17:56:31;;;;;;;10.40;5.18;;;;;;;;;;6291784;22;20174;-91
2023/03/24 17:59:37;;;;;;;11.10;5.32;;;;;;;;;;6290695;22;20240;-90
2023/03/24 18:02:43;;;;;;;10.65;5.20;;;;;;;;;;6291309;22;20612;-90
2023/03/24 18:05:49;;;;;;;4.95;3.17;;;;;;;;;;6271727;22;20186;-90
2023/03/24 18:08:56;;;;;;;3.53;1.90;;;;;;;;;;6290724;22;20169;-91
2023/03/24 18:12:03;;;;;;;3.35;1.75;;;;;;;;;;6290488;22;20209;-89
2023/03/24 18:15:11;;;;;;;2.13;1.42;;;;;;;;;;6290838;22;20189;-90
2023/03/24 18:18:16;;;;;;;2.17;1.25;;;;;;;;;;6291635;22;20699;-92
2023/03/24 18:25:12;;;;;;;2.95;1.63;;;;;;;;;;6291845;22;20690;-90
2023/03/24 18:28:19;;;;;;;2.42;1.50;;;;;;;;;;6273294;22;20174;-91
2023/03/24 18:31:24;;;;;;;2.58;1.30;;;;;;;;;;6273013;22;20169;-89
2023/03/24 18:34:30;;;;;;;6.07;1.65;;;;;;;;;;6290777;22;20193;-92
2023/03/24 18:37:36;;;;;;;2.83;1.33;;;;;;;;;;6290453;22;20204;-92
2023/03/24 18:40:41;;;;;;;2.25;1.50;;;;;;;;;;6270748;22;20166;-92
2023/03/24 18:43:47;;;;;;;5.30;1.70;;;;;;;;;;6289210;22;20305;-90
2023/03/24 18:46:54;;;;;;;15.00;7.13;;;;;;;;;;6271959;22;20193;-89
2023/03/24 18:49:59;;;;;;;10.15;4.78;;;;;;;;;;6289939;22;20238;-92
2023/03/24 18:53:04;;;;;;;3.75;1.65;;;;;;;;;;6291885;22;20160;-92
2023/03/24 18:56:10;;;;;;;4.10;2.00;;;;;;;;;;6288554;22;20244;-88
2023/03/24 18:59:17;;;;;;;3.53;1.80;;;;;;;;;;6288765;22;20213;-89
2023/03/24 19:02:25;;;;;;;4.28;1.83;;;;;;;;;;6288927;22;20169;-91
2023/03/24 19:05:32;;;;;;;3.38;1.65;;;;;;;;;;6291715;22;20173;-92
2023/03/24 19:08:39;;;;;;;3.55;1.77;;;;;;;;;;6292812;22;20173;-93
2023/03/24 19:11:45;;;;;;;5.07;2.10;;;;;;;;;;6273148;22;20209;-92
2023/03/24 19:14:55;;;;;;;3.20;1.70;;;;;;;;;;6295576;22;20189;-92
2023/03/24 19:18:00;;;;;;;3.47;1.40;;;;;;;;;;6292210;22;20166;-91
2023/03/24 19:21:16;;;;;;;6.65;1.80;;;;;;;;;;6275429;22;20150;-89